createdAt,value
2018-03-04T00:02:20.211Z,52.63
2018-03-04T00:04:47.757Z,42.57
2018-03-04T00:07:15.278Z,46.67
2018-03-04T00:09:42.872Z,62.27
2018-03-04T00:12:10.464Z,48.67
2018-03-04T00:14:38.164Z,64.63
2018-03-04T00:17:06.028Z,56.43
2018-03-04T00:19:33.588Z,46.80
2018-03-04T00:22:01.147Z,46.80
2018-03-04T00:24:28.700Z,44.23
2018-03-04T00:26:56.259Z,44.40
2018-03-04T00:29:23.808Z,51.27
2018-03-04T00:31:51.354Z,59.03
2018-03-04T00:34:19.146Z,47.00
2018-03-04T00:36:46.693Z,61.20
2018-03-04T00:39:14.295Z,49.60
2018-03-04T00:41:41.857Z,56.23
2018-03-04T00:44:09.467Z,47.83
2018-03-04T00:46:37.174Z,45.90
2018-03-04T00:49:04.734Z,45.50
2018-03-04T00:51:32.287Z,50.53
2018-03-04T00:54:00.462Z,47.63
2018-03-04T00:56:28.008Z,54.40
2018-03-04T00:58:55.574Z,48.80
2018-03-04T01:01:23.149Z,58.33
2018-03-04T01:03:50.681Z,55.27
2018-03-04T01:06:18.318Z,56.80
2018-03-04T01:08:46.137Z,54.70
2018-03-04T01:11:13.678Z,47.17
2018-03-04T01:13:41.223Z,54.30
2018-03-04T01:16:08.783Z,50.23
2018-03-04T01:18:36.349Z,47.80
2018-03-04T01:21:03.895Z,53.80
2018-03-04T01:23:31.459Z,59.27
2018-03-04T01:25:59.119Z,47.13
2018-03-04T01:28:26.709Z,52.90
2018-03-04T01:30:54.271Z,42.97
2018-03-04T01:33:21.803Z,53.70
2018-03-04T01:35:49.385Z,54.80
2018-03-04T01:38:16.941Z,56.67
2018-03-04T01:40:44.506Z,62.37
2018-03-04T01:43:12.391Z,62.17
2018-03-04T01:45:40.012Z,52.83
2018-03-04T01:48:07.586Z,56.33
2018-03-04T01:50:35.153Z,47.83
2018-03-04T01:53:03.150Z,54.07
2018-03-04T01:55:30.717Z,46.63
2018-03-04T01:57:58.273Z,53.60
2018-03-04T02:00:25.974Z,65.23
2018-03-04T02:02:53.796Z,54.93
2018-03-04T02:05:21.370Z,53.30
2018-03-04T02:07:48.958Z,54.57
2018-03-04T02:10:16.782Z,49.33
2018-03-04T02:12:44.334Z,61.53
2018-03-04T02:15:11.892Z,49.90
2018-03-04T02:17:39.608Z,45.10
2018-03-04T02:20:07.156Z,45.53
2018-03-04T02:22:34.700Z,43.93
2018-03-04T02:25:02.352Z,61.60
2018-03-04T02:27:29.886Z,61.00
2018-03-04T02:29:57.790Z,55.60
2018-03-04T02:32:25.338Z,50.93
2018-03-04T02:34:52.904Z,45.97
2018-03-04T02:37:20.534Z,53.73
2018-03-04T02:39:48.114Z,56.83
2018-03-04T02:42:15.678Z,58.57
2018-03-04T02:44:43.568Z,57.60
2018-03-04T02:47:11.100Z,53.57
2018-03-04T02:49:38.672Z,49.10
2018-03-04T02:52:06.243Z,54.47
2018-03-04T02:54:34.108Z,63.70
2018-03-04T02:57:01.684Z,51.23
2018-03-04T02:59:29.264Z,50.90
2018-03-04T03:01:56.810Z,55.37
2018-03-04T03:04:24.346Z,54.20
2018-03-04T03:06:51.938Z,62.93
2018-03-04T03:09:19.546Z,59.10
2018-03-04T03:11:47.110Z,60.30
2018-03-04T03:14:14.726Z,50.20
2018-03-04T03:16:42.350Z,56.50
2018-03-04T03:19:09.890Z,51.03
2018-03-04T03:21:37.788Z,57.90
2018-03-04T03:24:05.319Z,53.63
2018-03-04T03:26:32.881Z,59.50
2018-03-04T03:29:00.458Z,51.63
2018-03-04T03:31:28.005Z,61.83
2018-03-04T03:33:55.789Z,52.63
2018-03-04T03:36:23.374Z,53.43
2018-03-04T03:38:50.934Z,56.23
2018-03-04T03:41:18.484Z,55.70
2018-03-04T03:43:46.051Z,58.43
2018-03-04T03:46:13.588Z,57.20
2018-03-04T03:48:41.133Z,48.50
2018-03-04T03:51:08.708Z,63.33
2018-03-04T03:53:36.591Z,66.10
2018-03-04T03:56:04.157Z,60.50
2018-03-04T03:58:31.824Z,58.77
2018-03-04T04:00:59.358Z,65.00
2018-03-04T04:03:26.941Z,53.17
2018-03-04T04:05:54.813Z,58.07
2018-03-04T04:08:22.330Z,63.40
2018-03-04T04:10:49.888Z,47.90
2018-03-04T04:13:17.790Z,62.43
2018-03-04T04:15:45.392Z,58.63
2018-03-04T04:18:12.940Z,59.80
2018-03-04T04:20:40.881Z,51.00
2018-03-04T04:23:08.407Z,60.77
2018-03-04T04:25:35.934Z,57.73
2018-03-04T04:28:03.513Z,63.20
2018-03-04T04:30:31.052Z,63.37
2018-03-04T04:32:58.598Z,64.03
2018-03-04T04:35:26.172Z,56.87
2018-03-04T04:37:53.725Z,62.43
2018-03-04T04:40:21.251Z,62.33
2018-03-04T04:42:48.805Z,63.17
2018-03-04T04:45:16.368Z,68.73
2018-03-04T04:47:43.923Z,62.10
2018-03-04T04:50:11.521Z,62.63
2018-03-04T04:52:39.046Z,53.10
2018-03-04T04:55:06.604Z,61.40
2018-03-04T04:57:34.498Z,69.00
2018-03-04T05:00:02.070Z,53.00
2018-03-04T05:02:29.619Z,52.70
2018-03-04T05:04:57.179Z,57.03
2018-03-04T05:07:24.707Z,62.73
2018-03-04T05:09:52.259Z,72.90
2018-03-04T05:12:19.822Z,69.40
2018-03-04T05:14:47.862Z,55.70
2018-03-04T05:17:15.429Z,63.20
2018-03-04T05:19:43.058Z,58.40
2018-03-04T05:22:10.600Z,55.20
2018-03-04T05:24:38.134Z,57.53
2018-03-04T05:27:05.773Z,54.60
2018-03-04T05:29:33.295Z,56.80
2018-03-04T05:32:00.866Z,65.93
2018-03-04T05:34:28.470Z,60.50
2018-03-04T05:36:56.298Z,69.23
2018-03-04T05:39:23.863Z,54.00
2018-03-04T05:41:51.715Z,61.90
2018-03-04T05:44:19.286Z,59.47
2018-03-04T05:46:46.823Z,67.87
2018-03-04T05:49:14.515Z,60.57
2018-03-04T05:51:42.066Z,68.23
2018-03-04T05:54:09.691Z,62.00
2018-03-04T05:56:37.261Z,64.07
2018-03-04T05:59:04.813Z,68.53
2018-03-04T06:01:32.616Z,62.63
2018-03-04T06:04:00.197Z,52.57
2018-03-04T06:06:27.733Z,55.93
2018-03-04T06:08:55.317Z,63.93
2018-03-04T06:11:23.735Z,64.30
2018-03-04T06:13:51.570Z,68.47
2018-03-04T06:16:19.123Z,67.00
2018-03-04T06:18:46.661Z,61.73
2018-03-04T06:21:14.241Z,58.33
2018-03-04T06:23:41.816Z,56.40
2018-03-04T06:26:09.362Z,54.57
2018-03-04T06:28:36.970Z,67.30
2018-03-04T06:31:04.885Z,66.07
2018-03-04T06:33:32.446Z,60.50
2018-03-04T06:36:00.010Z,64.47
2018-03-04T06:38:27.642Z,56.47
2018-03-04T06:40:55.170Z,60.57
2018-03-04T06:43:22.823Z,60.37
2018-03-04T06:45:50.421Z,57.30
2018-03-04T06:48:18.006Z,59.30
2018-03-04T06:50:45.570Z,64.27
2018-03-04T06:53:13.138Z,64.30
2018-03-04T06:55:40.698Z,59.53
2018-03-04T06:58:08.259Z,71.13
2018-03-04T07:00:35.812Z,66.30
2018-03-04T07:03:03.777Z,55.77
2018-03-04T07:05:31.333Z,62.43
2018-03-04T07:07:58.930Z,68.57
2018-03-04T07:10:27.424Z,66.30
2018-03-04T07:12:55.139Z,88.53
2018-03-04T07:15:22.751Z,57.47
2018-03-04T07:17:50.337Z,67.83
2018-03-04T07:20:18.241Z,56.47
2018-03-04T07:22:45.883Z,57.43
2018-03-04T07:25:13.446Z,69.43
2018-03-04T07:27:41.014Z,60.37
2018-03-04T07:30:08.563Z,61.50
2018-03-04T07:32:36.150Z,59.23
2018-03-04T07:35:03.730Z,60.30
2018-03-04T07:37:31.320Z,59.60
2018-03-04T07:39:58.875Z,62.33
2018-03-04T07:42:26.433Z,73.90
2018-03-04T07:44:53.998Z,53.67
2018-03-04T07:47:21.932Z,62.77
2018-03-04T07:49:49.506Z,60.40
2018-03-04T07:52:17.115Z,60.87
2018-03-04T07:54:44.729Z,65.77
2018-03-04T07:57:12.480Z,67.30
2018-03-04T07:59:40.033Z,55.53
2018-03-04T08:02:07.660Z,59.23
2018-03-04T08:04:35.218Z,57.80
2018-03-04T08:07:02.829Z,59.53
2018-03-04T08:09:30.394Z,63.03
2018-03-04T08:11:57.968Z,56.43
2018-03-04T08:14:25.704Z,69.30
2018-03-04T08:16:53.279Z,65.13
2018-03-04T08:19:20.941Z,61.33
2018-03-04T08:21:48.497Z,61.30
2018-03-04T08:24:28.082Z,54.43
2018-03-04T08:27:07.541Z,57.70
2018-03-04T08:29:35.072Z,68.33
2018-03-04T08:32:02.711Z,67.00
2018-03-04T08:34:30.290Z,71.50
2018-03-04T08:36:58.137Z,63.73
2018-03-04T08:39:25.689Z,66.10
2018-03-04T08:41:53.218Z,60.67
2018-03-04T08:44:21.121Z,59.43
2018-03-04T08:46:48.700Z,60.53
2018-03-04T08:49:16.242Z,55.47
2018-03-04T08:51:43.825Z,67.20
2018-03-04T08:54:11.389Z,61.23
2018-03-04T08:56:38.984Z,76.33
2018-03-04T08:59:06.695Z,69.17
2018-03-04T09:01:34.249Z,71.70
2018-03-04T09:04:02.196Z,65.40
2018-03-04T09:06:29.688Z,63.10
2018-03-04T09:08:57.243Z,67.67
2018-03-04T09:11:24.789Z,65.23
2018-03-04T09:13:52.350Z,69.00
2018-03-04T09:16:19.904Z,79.00
2018-03-04T09:18:47.787Z,68.50
2018-03-04T09:21:15.482Z,71.97
2018-03-04T09:23:43.305Z,66.07
2018-03-04T09:26:10.847Z,77.43
2018-03-04T09:28:38.442Z,81.07
2018-03-04T09:31:05.979Z,74.77
2018-03-04T09:33:33.558Z,80.80
2018-03-04T09:36:01.134Z,67.93
2018-03-04T09:38:29.051Z,74.20
2018-03-04T09:40:56.949Z,75.43
2018-03-04T09:43:24.500Z,60.90
2018-03-04T09:45:52.091Z,77.33
2018-03-04T09:48:19.641Z,75.07
2018-03-04T09:50:47.199Z,69.63
2018-03-04T09:53:14.761Z,73.63
2018-03-04T09:58:23.600Z,67.37
2018-03-04T10:00:51.147Z,72.00
2018-03-04T10:03:18.698Z,76.10
2018-03-04T10:05:46.264Z,77.63
2018-03-04T10:08:13.869Z,72.83
2018-03-04T10:10:41.447Z,81.40
2018-03-04T10:13:09.003Z,75.83
2018-03-04T10:15:36.629Z,74.63
2018-03-04T10:18:04.172Z,75.43
2018-03-04T10:20:31.787Z,80.43
2018-03-04T10:22:59.332Z,76.07
2018-03-04T10:25:26.983Z,80.43
2018-03-04T10:27:54.540Z,78.23
2018-03-04T10:30:22.117Z,67.33
2018-03-04T10:32:49.639Z,83.47
2018-03-04T10:35:17.180Z,96.00
2018-03-04T10:37:45.467Z,85.27
2018-03-04T10:40:13.022Z,78.07
2018-03-04T10:42:40.845Z,76.13
2018-03-04T10:45:08.402Z,78.47
2018-03-04T10:47:35.959Z,93.63
2018-03-04T10:50:03.515Z,86.90
2018-03-04T10:52:31.123Z,88.40
2018-03-04T10:54:58.636Z,81.47
2018-03-04T10:57:26.164Z,75.63
2018-03-04T10:59:53.742Z,93.17
2018-03-04T11:02:24.083Z,94.93
2018-03-04T11:04:51.676Z,90.73
2018-03-04T11:07:19.212Z,79.40
2018-03-04T11:09:46.773Z,88.10
2018-03-04T11:12:14.310Z,96.63
2018-03-04T11:14:41.877Z,89.03
2018-03-04T11:17:09.511Z,76.27
2018-03-04T11:19:37.077Z,87.87
2018-03-04T11:22:04.626Z,78.17
2018-03-04T11:24:32.179Z,85.93
2018-03-04T11:26:59.790Z,80.77
2018-03-04T11:29:27.355Z,93.00
2018-03-04T11:31:55.210Z,86.87
2018-03-04T11:34:22.742Z,80.70
2018-03-04T11:36:50.872Z,89.63
2018-03-04T11:39:18.561Z,96.33
2018-03-04T11:41:46.169Z,89.20
2018-03-04T11:44:14.029Z,87.47
2018-03-04T11:46:41.562Z,94.00
2018-03-04T11:49:09.103Z,95.40
2018-03-04T11:51:36.632Z,92.60
2018-03-04T11:54:04.480Z,92.47
2018-03-04T11:56:32.021Z,91.03
2018-03-04T11:58:59.627Z,96.27
2018-03-04T12:01:27.166Z,92.27
2018-03-04T12:03:54.948Z,95.23
2018-03-04T12:06:22.524Z,83.80
2018-03-04T12:08:50.133Z,104.80
2018-03-04T12:11:17.683Z,102.57
2018-03-04T12:13:45.198Z,92.60
2018-03-04T12:16:13.048Z,102.90
2018-03-04T12:18:40.613Z,100.43
2018-03-04T12:21:08.163Z,100.37
2018-03-04T12:23:35.694Z,106.97
2018-03-04T12:26:03.590Z,113.03
2018-03-04T12:28:31.162Z,93.80
2018-03-04T12:30:58.722Z,97.63
2018-03-04T12:33:26.349Z,105.50
2018-03-04T12:35:53.903Z,104.03
2018-03-04T12:38:21.487Z,95.80
2018-03-04T12:40:49.127Z,100.63
2018-03-04T12:43:17.810Z,96.17
2018-03-04T12:45:45.448Z,101.83
2018-03-04T12:48:13.006Z,104.17
2018-03-04T12:50:40.833Z,92.20
2018-03-04T12:53:08.410Z,91.03
2018-03-04T12:55:36.060Z,93.23
2018-03-04T12:58:03.639Z,96.23
2018-03-04T13:00:31.487Z,109.87
2018-03-04T13:02:59.007Z,96.20
2018-03-04T13:05:26.810Z,102.63
2018-03-04T13:07:56.122Z,108.77
2018-03-04T13:10:23.981Z,97.27
2018-03-04T13:12:51.562Z,103.97
2018-03-04T13:15:19.125Z,98.53
2018-03-04T13:17:47.898Z,91.40
2018-03-04T13:20:15.451Z,112.17
2018-03-04T13:22:42.996Z,102.53
2018-03-04T13:25:10.555Z,94.97
2018-03-04T13:27:38.251Z,100.87
2018-03-04T13:30:05.872Z,88.17
2018-03-04T13:32:33.472Z,89.07
2018-03-04T13:35:01.170Z,104.97
2018-03-04T13:37:28.719Z,86.50
2018-03-04T13:39:58.294Z,100.20
2018-03-04T13:42:25.857Z,114.43
2018-03-04T13:44:53.382Z,108.40
2018-03-04T13:47:21.434Z,96.93
2018-03-04T13:49:48.956Z,95.33
2018-03-04T13:52:16.989Z,93.03
2018-03-04T13:54:44.573Z,96.87
2018-03-04T13:57:12.162Z,93.07
2018-03-04T13:59:39.713Z,96.33
2018-03-04T14:02:07.339Z,95.23
2018-03-04T14:04:35.143Z,92.07
2018-03-04T14:07:03.093Z,93.37
2018-03-04T14:09:30.863Z,91.97
2018-03-04T14:11:59.256Z,90.20
2018-03-04T14:14:27.112Z,83.83
2018-03-04T14:16:54.980Z,88.50
2018-03-04T14:19:22.523Z,87.27
2018-03-04T14:21:50.875Z,97.60
2018-03-04T14:24:19.005Z,87.53
2018-03-04T14:26:46.563Z,84.43
2018-03-04T14:29:14.156Z,98.93
2018-03-04T14:31:41.768Z,82.30
2018-03-04T14:34:09.291Z,87.57
2018-03-04T14:36:37.699Z,88.13
2018-03-04T14:39:05.237Z,71.70
2018-03-04T14:41:33.224Z,84.97
2018-03-04T14:44:01.097Z,104.07
2018-03-04T14:46:28.747Z,89.73
2018-03-04T14:48:56.464Z,95.80
2018-03-04T14:51:24.149Z,91.97
2018-03-04T14:53:52.543Z,95.80
2018-03-04T14:56:20.421Z,88.30
2018-03-04T14:58:47.990Z,91.63
2018-03-04T15:01:15.553Z,97.50
2018-03-04T15:03:43.118Z,95.47
2018-03-04T15:06:10.663Z,102.53
2018-03-04T15:08:38.233Z,96.53
2018-03-04T15:11:06.103Z,92.73
2018-03-04T15:13:33.643Z,88.60
2018-03-04T15:16:01.186Z,95.60
2018-03-04T15:18:28.977Z,98.90
2018-03-04T15:20:56.886Z,88.80
2018-03-04T15:23:24.411Z,86.63
2018-03-04T15:25:51.942Z,89.70
2018-03-04T15:28:19.491Z,80.07
2018-03-04T15:30:47.058Z,99.47
2018-03-04T15:33:14.650Z,98.97
2018-03-04T15:35:42.207Z,94.33
2018-03-04T15:38:09.802Z,86.07
2018-03-04T15:40:37.455Z,92.37
2018-03-04T15:43:05.025Z,90.50
2018-03-04T15:45:32.572Z,84.57
2018-03-04T15:48:00.164Z,84.37
2018-03-04T15:50:28.035Z,88.17
2018-03-04T15:52:55.640Z,92.17
2018-03-04T15:55:23.202Z,95.97
2018-03-04T15:57:50.844Z,91.33
2018-03-04T16:00:18.453Z,90.10
2018-03-04T16:02:46.187Z,76.43
2018-03-04T16:05:13.976Z,86.00
2018-03-04T16:07:41.578Z,91.27
2018-03-04T16:10:09.634Z,85.83
2018-03-04T16:12:37.332Z,97.17
2018-03-04T16:15:06.300Z,86.50
2018-03-04T16:17:34.021Z,83.13
2018-03-04T16:20:01.764Z,86.40
2018-03-04T16:22:29.403Z,86.17
2018-03-04T16:24:57.018Z,89.40
2018-03-04T16:27:25.600Z,90.93
2018-03-04T16:29:53.143Z,77.40
2018-03-04T16:32:20.683Z,94.43
2018-03-04T16:34:48.202Z,103.73
2018-03-04T16:37:15.840Z,87.43
2018-03-04T16:39:43.390Z,72.27
2018-03-04T16:42:10.948Z,82.00
2018-03-04T16:44:38.586Z,81.20
2018-03-04T16:47:06.117Z,82.60
2018-03-04T16:49:33.660Z,82.63
2018-03-04T16:52:01.224Z,92.07
2018-03-04T16:54:28.813Z,71.57
2018-03-04T16:56:58.148Z,86.93
2018-03-04T16:59:25.700Z,82.00
2018-03-04T17:01:53.337Z,91.43
2018-03-04T17:04:20.925Z,86.60
2018-03-04T17:06:48.850Z,92.23
2018-03-04T17:09:16.531Z,67.73
2018-03-04T17:11:44.121Z,82.57
2018-03-04T17:14:11.944Z,77.97
2018-03-04T17:16:39.512Z,70.10
2018-03-04T17:19:07.074Z,79.57
2018-03-04T17:21:34.614Z,85.23
2018-03-04T17:24:02.192Z,79.13
2018-03-04T17:26:30.059Z,79.57
2018-03-04T17:28:57.632Z,78.43
2018-03-04T17:31:25.227Z,77.23
2018-03-04T17:33:52.776Z,66.10
2018-03-04T17:36:20.318Z,79.80
2018-03-04T17:38:48.017Z,70.20
2018-03-04T17:41:15.595Z,67.03
2018-03-04T17:43:43.420Z,78.37
2018-03-04T17:46:10.980Z,71.63
2018-03-04T17:48:38.642Z,75.67
2018-03-04T17:51:06.196Z,59.33
2018-03-04T17:53:33.858Z,71.20
2018-03-04T17:56:01.407Z,86.10
2018-03-04T17:58:29.006Z,80.50
2018-03-04T18:00:56.575Z,71.60
2018-03-04T18:03:24.121Z,67.97
2018-03-04T18:05:51.651Z,71.40
2018-03-04T18:08:19.206Z,63.93
2018-03-04T18:10:46.777Z,68.73
2018-03-04T18:13:15.467Z,61.70
2018-03-04T18:15:43.073Z,77.20
2018-03-04T18:18:10.688Z,67.27
2018-03-04T18:20:38.242Z,72.47
2018-03-04T18:23:05.853Z,73.50
2018-03-04T18:25:33.373Z,64.43
2018-03-04T18:28:01.043Z,76.53
2018-03-04T18:30:28.642Z,69.70
2018-03-04T18:32:56.296Z,66.67
2018-03-04T18:35:23.871Z,71.93
2018-03-04T18:37:51.418Z,76.20
2018-03-04T18:40:20.575Z,61.57
2018-03-04T18:42:48.131Z,71.17
2018-03-04T18:45:15.733Z,70.53
2018-03-04T18:47:43.324Z,73.03
2018-03-04T18:50:10.850Z,67.20
2018-03-04T18:52:38.366Z,67.30
2018-03-04T18:55:05.943Z,72.70
2018-03-04T18:57:33.511Z,66.30
2018-03-04T19:00:01.092Z,71.10
2018-03-04T19:02:28.656Z,71.77
2018-03-04T19:04:56.335Z,73.77
2018-03-04T19:07:23.906Z,85.00
2018-03-04T19:09:51.466Z,76.83
2018-03-04T19:12:19.062Z,73.63
2018-03-04T19:14:46.627Z,78.17
2018-03-04T19:17:14.172Z,73.10
2018-03-04T19:19:41.778Z,77.03
2018-03-04T19:22:09.290Z,82.97
2018-03-04T19:24:36.890Z,84.30
2018-03-04T19:27:04.421Z,81.23
2018-03-04T19:29:31.997Z,91.70
2018-03-04T19:31:59.958Z,87.30
2018-03-04T19:34:27.529Z,108.23
2018-03-04T19:36:55.181Z,81.50
2018-03-04T19:39:22.753Z,82.63
2018-03-04T19:41:50.420Z,87.37
2018-03-04T19:44:18.084Z,79.60
2018-03-04T19:46:45.674Z,83.67
2018-03-04T19:49:13.255Z,81.87
2018-03-04T19:51:40.857Z,88.80
2018-03-04T19:54:08.466Z,88.83
2018-03-04T19:56:37.014Z,77.93
2018-03-04T19:59:04.659Z,85.97
2018-03-04T20:01:32.204Z,85.70
2018-03-04T20:03:59.860Z,90.73
2018-03-04T20:06:27.443Z,93.50
2018-03-04T20:08:55.027Z,85.03
2018-03-04T20:11:22.565Z,96.10
2018-03-04T20:13:50.139Z,84.90
2018-03-04T20:16:17.686Z,80.77
2018-03-04T20:18:45.246Z,85.07
2018-03-04T20:21:12.997Z,91.67
2018-03-04T20:23:40.570Z,83.90
2018-03-04T20:26:08.529Z,84.77
2018-03-04T20:28:36.523Z,98.13
2018-03-04T20:31:04.297Z,95.80
2018-03-04T20:33:34.869Z,93.13
2018-03-04T20:36:02.556Z,91.40
2018-03-04T20:38:30.218Z,86.77
2018-03-04T20:40:57.764Z,89.00
2018-03-04T20:43:25.309Z,87.00
2018-03-04T20:45:52.934Z,78.13
2018-03-04T20:48:20.567Z,84.80
2018-03-04T20:50:48.111Z,101.10
2018-03-04T20:53:15.636Z,89.67
2018-03-04T20:55:43.208Z,91.00
2018-03-04T20:58:10.803Z,83.97
2018-03-04T21:00:38.401Z,87.17
2018-03-04T21:03:05.942Z,89.37
2018-03-04T21:05:33.479Z,86.37
2018-03-04T21:08:01.282Z,76.47
2018-03-04T21:10:28.835Z,103.83
2018-03-04T21:12:57.769Z,85.70
2018-03-04T21:15:25.513Z,79.30
2018-03-04T21:17:53.065Z,89.23
2018-03-04T21:20:22.538Z,80.60
2018-03-04T21:22:50.099Z,78.60
2018-03-04T21:25:17.672Z,78.20
2018-03-04T21:27:45.471Z,90.67
2018-03-04T21:30:13.030Z,133.77
2018-03-04T21:32:40.667Z,88.33
2018-03-04T21:35:18.670Z,87.23
2018-03-04T21:37:46.186Z,87.80
2018-03-04T21:40:14.044Z,92.63
2018-03-04T21:42:41.577Z,83.37
2018-03-04T21:45:09.097Z,90.03
2018-03-04T21:47:36.701Z,93.00
2018-03-04T21:50:04.414Z,78.00
2018-03-04T21:52:31.966Z,76.93
2018-03-04T21:54:59.514Z,76.30
2018-03-04T21:57:27.066Z,86.40
2018-03-04T21:59:54.674Z,80.67
2018-03-04T22:02:23.061Z,90.83
2018-03-04T22:04:50.774Z,88.27
2018-03-04T22:07:18.302Z,95.47
2018-03-04T22:09:45.960Z,84.00
2018-03-04T22:12:13.481Z,76.43
2018-03-04T22:14:41.041Z,91.37
2018-03-04T22:17:08.600Z,81.90
2018-03-04T22:19:36.200Z,90.47
2018-03-04T22:22:03.721Z,91.60
2018-03-04T22:24:31.279Z,78.60
2018-03-04T22:26:58.843Z,76.97
2018-03-04T22:29:26.394Z,76.47
2018-03-04T22:31:53.935Z,91.53
2018-03-04T22:34:23.155Z,82.50
2018-03-04T22:36:50.741Z,82.93
2018-03-04T22:39:18.266Z,90.60
2018-03-04T22:41:45.849Z,99.67
2018-03-04T22:44:13.403Z,101.17
2018-03-04T22:46:41.216Z,77.43
2018-03-04T22:49:08.778Z,83.37
2018-03-04T22:51:36.464Z,79.40
2018-03-04T22:54:04.023Z,75.33
2018-03-04T22:56:31.770Z,83.53
2018-03-04T22:58:59.387Z,82.30
2018-03-04T23:01:27.049Z,79.73
2018-03-04T23:03:54.746Z,93.70
2018-03-04T23:06:22.313Z,98.03
2018-03-04T23:08:50.177Z,85.27
2018-03-04T23:11:17.822Z,75.13
2018-03-04T23:13:45.414Z,78.40
2018-03-04T23:16:12.989Z,85.87
2018-03-04T23:18:40.540Z,79.67
2018-03-04T23:21:09.478Z,69.57
2018-03-04T23:23:37.073Z,80.77
2018-03-04T23:26:04.952Z,95.07
2018-03-04T23:28:32.475Z,89.67
2018-03-04T23:31:00.023Z,78.40
2018-03-04T23:33:27.617Z,87.47
2018-03-04T23:35:55.168Z,78.87
2018-03-04T23:38:22.698Z,79.80
2018-03-04T23:40:50.524Z,101.63
2018-03-04T23:43:18.058Z,82.60
2018-03-04T23:45:45.846Z,76.43
2018-03-04T23:48:13.416Z,84.50
2018-03-04T23:50:40.975Z,78.83
2018-03-04T23:53:08.535Z,77.27
2018-03-04T23:55:36.394Z,73.37
2018-03-04T23:58:03.950Z,112.47
